sensor_id;sensor_type;location;lat;lon;timestamp;pressure;altitude;pressure_sealevel;temperature;humidity
56632;BME280;42503;39.928;-75.152;2022-10-16T00:01:57;101357.59;;;23.79;41.98
56632;BME280;42503;39.928;-75.152;2022-10-16T00:04:04;101366.88;;;23.75;41.97
56632;BME280;42503;39.928;-75.152;2022-10-16T00:06:06;101353.50;;;23.67;42.29
56632;BME280;42503;39.928;-75.152;2022-10-16T00:08:12;101359.91;;;23.67;42.46
56632;BME280;42503;39.928;-75.152;2022-10-16T00:10:14;101354.63;;;23.61;42.54
56632;BME280;42503;39.928;-75.152;2022-10-16T00:12:15;101362.72;;;23.62;42.45
56632;BME280;42503;39.928;-75.152;2022-10-16T00:14:16;101366.63;;;23.61;42.60
56632;BME280;42503;39.928;-75.152;2022-10-16T00:16:18;101369.44;;;23.61;42.60
56632;BME280;42503;39.928;-75.152;2022-10-16T00:18:22;101364.97;;;23.60;42.80
56632;BME280;42503;39.928;-75.152;2022-10-16T00:20:23;101357.44;;;23.61;42.57
56632;BME280;42503;39.928;-75.152;2022-10-16T00:22:24;101327.38;;;23.42;42.95
56632;BME280;42503;39.928;-75.152;2022-10-16T00:24:26;101364.38;;;23.63;42.78
56632;BME280;42503;39.928;-75.152;2022-10-16T00:26:31;101329.59;;;23.40;42.82
56632;BME280;42503;39.928;-75.152;2022-10-16T00:28:33;101355.47;;;23.61;42.63
56632;BME280;42503;39.928;-75.152;2022-10-16T00:30:38;101359.38;;;23.60;42.87
56632;BME280;42503;39.928;-75.152;2022-10-16T00:32:39;101352.97;;;23.59;43.01
56632;BME280;42503;39.928;-75.152;2022-10-16T00:34:43;101354.63;;;23.61;42.98
56632;BME280;42503;39.928;-75.152;2022-10-16T00:36:44;101359.09;;;23.62;42.64
56632;BME280;42503;39.928;-75.152;2022-10-16T00:38:46;101361.88;;;23.62;43.00
56632;BME280;42503;39.928;-75.152;2022-10-16T00:40:50;101352.19;;;23.49;43.05
56632;BME280;42503;39.928;-75.152;2022-10-16T00:42:51;101371.41;;;23.61;43.14
56632;BME280;42503;39.928;-75.152;2022-10-16T00:44:57;101369.44;;;23.61;43.08
56632;BME280;42503;39.928;-75.152;2022-10-16T00:47:04;101364.97;;;23.60;42.83
56632;BME280;42503;39.928;-75.152;2022-10-16T00:49:16;101364.97;;;23.60;43.08
56632;BME280;42503;39.928;-75.152;2022-10-16T00:51:25;101358.28;;;23.56;43.20
56632;BME280;42503;39.928;-75.152;2022-10-16T00:53:27;101359.97;;;23.57;43.11
56632;BME280;42503;39.928;-75.152;2022-10-16T00:55:28;101362.78;;;23.52;42.89
56632;BME280;42503;39.928;-75.152;2022-10-16T00:57:31;101374.72;;;23.63;43.26
56632;BME280;42503;39.928;-75.152;2022-10-16T00:59:40;101348.59;;;23.43;43.18
56632;BME280;42503;39.928;-75.152;2022-10-16T01:01:42;101375.56;;;23.63;43.22
56632;BME280;42503;39.928;-75.152;2022-10-16T01:03:43;101373.88;;;23.62;43.05
56632;BME280;42503;39.928;-75.152;2022-10-16T01:05:51;101375.84;;;23.62;43.11
56632;BME280;42503;39.928;-75.152;2022-10-16T01:08:16;101381.13;;;23.63;43.42
56632;BME280;42503;39.928;-75.152;2022-10-16T01:12:50;101378.66;;;23.62;43.45
56632;BME280;42503;39.928;-75.152;2022-10-16T01:14:59;101381.13;;;23.63;43.09
56632;BME280;42503;39.928;-75.152;2022-10-16T01:17:11;101358.88;;;23.53;43.24
56632;BME280;42503;39.928;-75.152;2022-10-16T01:19:26;101370.25;;;23.62;43.37
56632;BME280;42503;39.928;-75.152;2022-10-16T01:21:42;101358.91;;;23.48;43.44
56632;BME280;42503;39.928;-75.152;2022-10-16T01:23:51;101378.09;;;23.65;43.36
56632;BME280;42503;39.928;-75.152;2022-10-16T01:28:13;101389.53;;;23.63;43.65
56632;BME280;42503;39.928;-75.152;2022-10-16T01:30:20;101367.53;;;23.51;43.55
56632;BME280;42503;39.928;-75.152;2022-10-16T01:32:33;101375.06;;;23.56;43.58
56632;BME280;42503;39.928;-75.152;2022-10-16T01:34:45;101389.28;;;23.65;43.32
56632;BME280;42503;39.928;-75.152;2022-10-16T01:36:56;101385.06;;;23.62;43.43
56632;BME280;42503;39.928;-75.152;2022-10-16T01:39:00;101396.53;;;23.66;43.50
56632;BME280;42503;39.928;-75.152;2022-10-16T01:41:32;101398.72;;;23.64;43.35
56632;BME280;42503;39.928;-75.152;2022-10-16T01:43:41;101391.25;;;23.64;43.64
56632;BME280;42503;39.928;-75.152;2022-10-16T01:45:45;101408.25;;;23.68;43.58
56632;BME280;42503;39.928;-75.152;2022-10-16T01:47:48;101408.53;;;23.66;43.42
56632;BME280;42503;39.928;-75.152;2022-10-16T01:49:52;101402.13;;;23.66;43.58
56632;BME280;42503;39.928;-75.152;2022-10-16T01:52:02;101417.75;;;23.62;43.53
56632;BME280;42503;39.928;-75.152;2022-10-16T01:54:08;101406.06;;;23.65;43.71
56632;BME280;42503;39.928;-75.152;2022-10-16T01:56:12;101347.28;;;23.25;43.94
56632;BME280;42503;39.928;-75.152;2022-10-16T01:58:16;101379.28;;;23.48;43.66
56632;BME280;42503;39.928;-75.152;2022-10-16T02:00:19;101412.47;;;23.65;43.88
56632;BME280;42503;39.928;-75.152;2022-10-16T02:02:21;101412.47;;;23.65;43.63
56632;BME280;42503;39.928;-75.152;2022-10-16T02:04:31;101414.13;;;23.66;43.56
56632;BME280;42503;39.928;-75.152;2022-10-16T02:06:34;101411.88;;;23.68;43.94
56632;BME280;42503;39.928;-75.152;2022-10-16T02:08:36;101411.56;;;23.75;43.77
56632;BME280;42503;39.928;-75.152;2022-10-16T02:10:39;101412.66;;;23.79;43.99
56632;BME280;42503;39.928;-75.152;2022-10-16T02:12:45;101409.56;;;23.80;43.45
56632;BME280;42503;39.928;-75.152;2022-10-16T02:14:49;101421.28;;;23.88;43.33
56632;BME280;42503;39.928;-75.152;2022-10-16T02:16:53;101417.91;;;23.86;43.31
56632;BME280;42503;39.928;-75.152;2022-10-16T02:18:55;101403.50;;;23.73;43.32
56632;BME280;42503;39.928;-75.152;2022-10-16T02:23:03;101429.91;;;23.91;43.47
56632;BME280;42503;39.928;-75.152;2022-10-16T02:27:35;101428.19;;;23.95;43.26
56632;BME280;42503;39.928;-75.152;2022-10-16T02:29:47;101432.38;;;23.98;43.19
56632;BME280;42503;39.928;-75.152;2022-10-16T02:31:58;101430.13;;;24.00;43.06
56632;BME280;42503;39.928;-75.152;2022-10-16T02:34:03;101441.31;;;24.00;43.12
56632;BME280;42503;39.928;-75.152;2022-10-16T02:36:06;101439.06;;;24.02;42.95
56632;BME280;42503;39.928;-75.152;2022-10-16T02:38:08;101438.78;;;24.03;43.23
56632;BME280;42503;39.928;-75.152;2022-10-16T02:40:11;101442.38;;;24.04;43.26
56632;BME280;42503;39.928;-75.152;2022-10-16T02:42:17;101429.00;;;24.01;43.20
56632;BME280;42503;39.928;-75.152;2022-10-16T02:44:19;101401.16;;;23.86;43.06
56632;BME280;42503;39.928;-75.152;2022-10-16T02:46:21;101436.81;;;24.04;43.32
56632;BME280;42503;39.928;-75.152;2022-10-16T02:48:22;101434.56;;;24.06;43.03
56632;BME280;42503;39.928;-75.152;2022-10-16T02:50:29;101409.75;;;23.94;43.21
56632;BME280;42503;39.928;-75.152;2022-10-16T02:52:30;101431.78;;;24.06;43.10
56632;BME280;42503;39.928;-75.152;2022-10-16T02:54:41;101428.97;;;24.06;43.36
56632;BME280;42503;39.928;-75.152;2022-10-16T02:56:42;101429.81;;;24.06;43.02
56632;BME280;42503;39.928;-75.152;2022-10-16T02:58:52;101431.16;;;24.09;43.00
56632;BME280;42503;39.928;-75.152;2022-10-16T03:00:56;101429.22;;;24.09;43.13
56632;BME280;42503;39.928;-75.152;2022-10-16T03:03:00;101429.22;;;24.09;42.99
56632;BME280;42503;39.928;-75.152;2022-10-16T03:05:01;101433.97;;;24.09;42.86
56632;BME280;42503;39.928;-75.152;2022-10-16T03:07:03;101427.53;;;24.08;43.25
56632;BME280;42503;39.928;-75.152;2022-10-16T03:09:04;101432.31;;;24.08;43.13
56632;BME280;42503;39.928;-75.152;2022-10-16T03:11:05;101436.22;;;24.07;43.00
56632;BME280;42503;39.928;-75.152;2022-10-16T03:13:07;101421.13;;;24.08;43.32
56632;BME280;42503;39.928;-75.152;2022-10-16T03:15:08;101430.63;;;24.07;43.38
56632;BME280;42503;39.928;-75.152;2022-10-16T03:17:09;101424.22;;;24.06;43.14
56632;BME280;42503;39.928;-75.152;2022-10-16T03:19:13;101420.59;;;24.06;43.47
56632;BME280;42503;39.928;-75.152;2022-10-16T03:21:14;101418.63;;;24.06;43.29
56632;BME280;42503;39.928;-75.152;2022-10-16T03:23:16;101420.84;;;24.04;43.52
56632;BME280;42503;39.928;-75.152;2022-10-16T03:25:17;101419.47;;;24.07;43.30
56632;BME280;42503;39.928;-75.152;2022-10-16T03:27:18;101415.00;;;24.06;43.42
56632;BME280;42503;39.928;-75.152;2022-10-16T03:29:19;101419.47;;;24.07;43.26
56632;BME280;42503;39.928;-75.152;2022-10-16T03:31:24;101419.47;;;24.07;43.29
56632;BME280;42503;39.928;-75.152;2022-10-16T03:33:25;101411.38;;;24.05;43.22
56632;BME280;42503;39.928;-75.152;2022-10-16T03:35:29;101419.47;;;24.07;43.40
56632;BME280;42503;39.928;-75.152;2022-10-16T03:37:30;101411.91;;;24.07;43.17
56632;BME280;42503;39.928;-75.152;2022-10-16T03:39:35;101407.19;;;24.03;43.29
56632;BME280;42503;39.928;-75.152;2022-10-16T03:41:36;101411.59;;;24.09;43.08
56632;BME280;42503;39.928;-75.152;2022-10-16T03:43:37;101394.38;;;23.97;43.30
56632;BME280;42503;39.928;-75.152;2022-10-16T03:45:39;101420.28;;;24.07;43.37
56632;BME280;42503;39.928;-75.152;2022-10-16T03:47:40;101399.94;;;24.02;42.96
56632;BME280;42503;39.928;-75.152;2022-10-16T03:49:42;101417.50;;;24.07;43.33
56632;BME280;42503;39.928;-75.152;2022-10-16T03:51:43;101415.53;;;24.08;43.26
56632;BME280;42503;39.928;-75.152;2022-10-16T03:53:44;101418.31;;;24.08;43.18
56632;BME280;42503;39.928;-75.152;2022-10-16T03:55:45;101413.88;;;24.07;43.29
56632;BME280;42503;39.928;-75.152;2022-10-16T03:57:49;101415.53;;;24.08;43.38
56632;BME280;42503;39.928;-75.152;2022-10-16T03:59:51;101412.72;;;24.08;43.01
56632;BME280;42503;39.928;-75.152;2022-10-16T04:01:52;101408.84;;;24.04;43.09
56632;BME280;42503;39.928;-75.152;2022-10-16T04:03:53;101407.19;;;24.03;43.50
56632;BME280;42503;39.928;-75.152;2022-10-16T04:05:55;101421.13;;;24.08;43.45
56632;BME280;42503;39.928;-75.152;2022-10-16T04:07:56;101415.53;;;24.08;43.36
56632;BME280;42503;39.928;-75.152;2022-10-16T04:09:57;101422.25;;;24.07;43.21
56632;BME280;42503;39.928;-75.152;2022-10-16T04:11:59;101417.22;;;24.04;43.35
56632;BME280;42503;39.928;-75.152;2022-10-16T04:14:01;101421.13;;;24.08;43.36
56632;BME280;42503;39.928;-75.152;2022-10-16T04:16:02;101409.09;;;24.07;43.13
56632;BME280;42503;39.928;-75.152;2022-10-16T04:18:04;101402.69;;;24.07;43.14
56632;BME280;42503;39.928;-75.152;2022-10-16T04:20:06;101415.28;;;24.04;43.22
56632;BME280;42503;39.928;-75.152;2022-10-16T04:22:07;101404.44;;;23.98;43.29
56632;BME280;42503;39.928;-75.152;2022-10-16T04:24:08;101407.44;;;24.06;43.36
56632;BME280;42503;39.928;-75.152;2022-10-16T04:26:11;101412.72;;;24.08;43.18
56632;BME280;42503;39.928;-75.152;2022-10-16T04:28:13;101405.53;;;24.02;43.21
56632;BME280;42503;39.928;-75.152;2022-10-16T04:30:14;101412.19;;;24.06;43.26
56632;BME280;42503;39.928;-75.152;2022-10-16T04:32:15;101411.38;;;24.05;43.27
56632;BME280;42503;39.928;-75.152;2022-10-16T04:34:17;101404.91;;;24.05;43.24
56632;BME280;42503;39.928;-75.152;2022-10-16T04:36:18;101411.63;;;24.04;43.32
56632;BME280;42503;39.928;-75.152;2022-10-16T04:38:19;101408.84;;;24.04;43.41
56632;BME280;42503;39.928;-75.152;2022-10-16T04:40:21;101402.44;;;24.03;43.67
56632;BME280;42503;39.928;-75.152;2022-10-16T04:42:22;101400.47;;;24.04;43.30
56632;BME280;42503;39.928;-75.152;2022-10-16T04:44:23;101404.09;;;24.04;43.48
56632;BME280;42503;39.928;-75.152;2022-10-16T04:46:27;101408.84;;;24.04;43.09
56632;BME280;42503;39.928;-75.152;2022-10-16T04:48:28;101402.16;;;24.00;43.43
56632;BME280;42503;39.928;-75.152;2022-10-16T04:50:30;101407.19;;;24.03;43.64
56632;BME280;42503;39.928;-75.152;2022-10-16T04:52:34;101393.28;;;23.93;43.33
56632;BME280;42503;39.928;-75.152;2022-10-16T04:54:35;101411.63;;;24.04;43.40
56632;BME280;42503;39.928;-75.152;2022-10-16T04:56:36;101412.78;;;24.03;43.45
56632;BME280;42503;39.928;-75.152;2022-10-16T04:58:44;101410.81;;;24.03;43.49
56632;BME280;42503;39.928;-75.152;2022-10-16T05:00:48;101376.00;;;23.86;43.43
56632;BME280;42503;39.928;-75.152;2022-10-16T05:02:52;101404.38;;;24.03;43.33
56632;BME280;42503;39.928;-75.152;2022-10-16T05:04:53;101404.38;;;24.03;43.57
56632;BME280;42503;39.928;-75.152;2022-10-16T05:06:57;101412.78;;;24.03;43.51
56632;BME280;42503;39.928;-75.152;2022-10-16T05:08:58;101393.31;;;23.88;43.32
56632;BME280;42503;39.928;-75.152;2022-10-16T05:11:00;101412.78;;;24.03;43.43
56632;BME280;42503;39.928;-75.152;2022-10-16T05:13:02;101421.16;;;24.03;43.39
56632;BME280;42503;39.928;-75.152;2022-10-16T05:15:04;101413.06;;;24.01;43.34
56632;BME280;42503;39.928;-75.152;2022-10-16T05:17:12;100952.75;;;21.18;43.35
56632;BME280;42503;39.928;-75.152;2022-10-16T05:19:13;101414.19;;;24.00;43.56
56632;BME280;42503;39.928;-75.152;2022-10-16T05:21:17;101403.06;;;23.90;43.39
56632;BME280;42503;39.928;-75.152;2022-10-16T05:23:19;101425.09;;;24.02;43.33
56632;BME280;42503;39.928;-75.152;2022-10-16T05:25:20;101412.50;;;23.99;43.49
56632;BME280;42503;39.928;-75.152;2022-10-16T05:27:21;101411.13;;;24.02;43.42
56632;BME280;42503;39.928;-75.152;2022-10-16T05:29:23;101328.16;;;23.48;43.31
56632;BME280;42503;39.928;-75.152;2022-10-16T05:31:24;101415.88;;;24.01;43.33
56632;BME280;42503;39.928;-75.152;2022-10-16T05:33:28;101400.19;;;24.00;43.47
56632;BME280;42503;39.928;-75.152;2022-10-16T05:35:29;101388.31;;;23.84;43.57
56632;BME280;42503;39.928;-75.152;2022-10-16T05:37:31;101378.22;;;23.89;43.44
56632;BME280;42503;39.928;-75.152;2022-10-16T05:39:32;101404.69;;;24.01;43.30
56632;BME280;42503;39.928;-75.152;2022-10-16T05:41:33;101402.16;;;24.00;43.56
56632;BME280;42503;39.928;-75.152;2022-10-16T05:43:35;101388.28;;;23.90;43.48
56632;BME280;42503;39.928;-75.152;2022-10-16T05:45:36;101407.75;;;24.00;43.69
56632;BME280;42503;39.928;-75.152;2022-10-16T05:47:38;101403.28;;;23.99;43.48
56632;BME280;42503;39.928;-75.152;2022-10-16T05:49:39;101401.34;;;23.99;43.66
56632;BME280;42503;39.928;-75.152;2022-10-16T05:51:40;101400.50;;;23.99;43.41
56632;BME280;42503;39.928;-75.152;2022-10-16T05:53:43;101394.91;;;23.99;43.41
56632;BME280;42503;39.928;-75.152;2022-10-16T05:55:54;101390.44;;;23.98;43.52
56632;BME280;42503;39.928;-75.152;2022-10-16T05:57:56;101386.56;;;23.94;43.85
56632;BME280;42503;39.928;-75.152;2022-10-16T05:59:57;101388.19;;;24.00;43.47
56632;BME280;42503;39.928;-75.152;2022-10-16T06:01:58;101373.72;;;23.93;43.41
56632;BME280;42503;39.928;-75.152;2022-10-16T06:04:00;101392.13;;;23.99;43.33
56632;BME280;42503;39.928;-75.152;2022-10-16T06:06:11;101387.66;;;23.98;43.47
56632;BME280;42503;39.928;-75.152;2022-10-16T06:08:13;101376.78;;;23.96;43.45
56632;BME280;42503;39.928;-75.152;2022-10-16T06:10:30;101108.47;;;22.00;43.61
56632;BME280;42503;39.928;-75.152;2022-10-16T06:12:34;101390.75;;;23.96;43.55
56632;BME280;42503;39.928;-75.152;2022-10-16T06:14:35;101393.25;;;23.98;43.32
56632;BME280;42503;39.928;-75.152;2022-10-16T06:16:37;101344.81;;;23.73;43.54
56632;BME280;42503;39.928;-75.152;2022-10-16T06:18:38;101384.03;;;23.97;43.43
56632;BME280;42503;39.928;-75.152;2022-10-16T06:20:43;101382.38;;;23.96;43.67
56632;BME280;42503;39.928;-75.152;2022-10-16T06:22:47;101385.16;;;23.96;43.52
56632;BME280;42503;39.928;-75.152;2022-10-16T06:24:50;101387.66;;;23.98;43.61
56632;BME280;42503;39.928;-75.152;2022-10-16T06:26:52;101388.50;;;23.98;43.66
56632;BME280;42503;39.928;-75.152;2022-10-16T06:28:57;101381.22;;;23.97;43.47
56632;BME280;42503;39.928;-75.152;2022-10-16T06:31:02;101381.22;;;23.97;43.53
56632;BME280;42503;39.928;-75.152;2022-10-16T06:33:10;101383.72;;;23.99;43.41
56632;BME280;42503;39.928;-75.152;2022-10-16T06:35:12;101382.06;;;23.98;43.47
56632;BME280;42503;39.928;-75.152;2022-10-16T06:37:13;101380.94;;;23.99;43.71
56632;BME280;42503;39.928;-75.152;2022-10-16T06:39:14;101384.88;;;23.98;43.44
56632;BME280;42503;39.928;-75.152;2022-10-16T06:41:20;101371.72;;;23.98;43.37
56632;BME280;42503;39.928;-75.152;2022-10-16T06:43:22;101353.63;;;23.86;43.26
56632;BME280;42503;39.928;-75.152;2022-10-16T06:45:26;101375.09;;;23.95;43.60
56632;BME280;42503;39.928;-75.152;2022-10-16T06:47:27;101373.13;;;23.96;43.46
56632;BME280;42503;39.928;-75.152;2022-10-16T06:49:28;101373.16;;;23.91;43.50
56632;BME280;42503;39.928;-75.152;2022-10-16T06:51:30;101368.66;;;23.95;43.38
56632;BME280;42503;39.928;-75.152;2022-10-16T06:53:34;101358.09;;;23.87;43.48
56632;BME280;42503;39.928;-75.152;2022-10-16T06:55:36;101367.81;;;23.94;43.55
56632;BME280;42503;39.928;-75.152;2022-10-16T06:57:37;101373.72;;;23.93;43.46
56632;BME280;42503;39.928;-75.152;2022-10-16T06:59:38;101372.06;;;23.92;43.42
56632;BME280;42503;39.928;-75.152;2022-10-16T07:01:39;101370.09;;;23.92;43.77
56632;BME280;42503;39.928;-75.152;2022-10-16T07:03:43;101367.31;;;23.92;43.60
56632;BME280;42503;39.928;-75.152;2022-10-16T07:05:44;101372.88;;;23.92;43.48
56632;BME280;42503;39.928;-75.152;2022-10-16T07:07:46;101370.94;;;23.93;43.68
56632;BME280;42503;39.928;-75.152;2022-10-16T07:09:47;101368.13;;;23.93;43.76
56632;BME280;42503;39.928;-75.152;2022-10-16T07:11:48;101366.47;;;23.92;43.70
56632;BME280;42503;39.928;-75.152;2022-10-16T07:13:50;101353.59;;;23.91;43.87
56632;BME280;42503;39.928;-75.152;2022-10-16T07:15:52;101361.72;;;23.92;43.56
56632;BME280;42503;39.928;-75.152;2022-10-16T07:17:53;101355.28;;;23.92;43.56
56632;BME280;42503;39.928;-75.152;2022-10-16T07:19:54;101346.34;;;23.90;43.73
56632;BME280;42503;39.928;-75.152;2022-10-16T07:21:56;101351.94;;;23.90;43.54
56632;BME280;42503;39.928;-75.152;2022-10-16T07:23:59;101349.13;;;23.90;43.71
56632;BME280;42503;39.928;-75.152;2022-10-16T07:26:02;101348.00;;;23.91;43.83
56632;BME280;42503;39.928;-75.152;2022-10-16T07:28:04;101347.19;;;23.90;43.81
56632;BME280;42503;39.928;-75.152;2022-10-16T07:30:05;101341.31;;;23.92;43.60
56632;BME280;42503;39.928;-75.152;2022-10-16T07:32:07;101338.53;;;23.92;43.37
56632;BME280;42503;39.928;-75.152;2022-10-16T07:34:09;101329.31;;;23.86;43.46
56632;BME280;42503;39.928;-75.152;2022-10-16T07:36:15;101346.91;;;23.92;43.43
56632;BME280;42503;39.928;-75.152;2022-10-16T07:38:16;101348.00;;;23.91;43.29
56632;BME280;42503;39.928;-75.152;2022-10-16T07:40:18;101349.69;;;23.92;43.35
56632;BME280;42503;39.928;-75.152;2022-10-16T07:42:19;101353.06;;;23.89;43.73
56632;BME280;42503;39.928;-75.152;2022-10-16T07:44:21;101354.44;;;23.91;43.70
56632;BME280;42503;39.928;-75.152;2022-10-16T07:46:25;101334.72;;;23.72;43.73
56632;BME280;42503;39.928;-75.152;2022-10-16T07:48:31;101353.06;;;23.89;43.51
56632;BME280;42503;39.928;-75.152;2022-10-16T07:50:32;101335.72;;;23.87;43.31
56632;BME280;42503;39.928;-75.152;2022-10-16T07:52:36;101344.69;;;23.89;43.36
56632;BME280;42503;39.928;-75.152;2022-10-16T07:54:40;101349.09;;;23.95;43.50
56632;BME280;42503;39.928;-75.152;2022-10-16T07:56:41;101343.59;;;23.84;43.53
56632;BME280;42503;39.928;-75.152;2022-10-16T07:58:45;101335.81;;;23.76;43.57
56632;BME280;42503;39.928;-75.152;2022-10-16T08:00:50;101358.66;;;23.89;43.51
56632;BME280;42503;39.928;-75.152;2022-10-16T08:02:51;101363.94;;;23.90;43.51
56632;BME280;42503;39.928;-75.152;2022-10-16T08:04:53;101359.78;;;23.88;43.62
56632;BME280;42503;39.928;-75.152;2022-10-16T08:06:54;101372.63;;;23.89;43.72
56632;BME280;42503;39.928;-75.152;2022-10-16T08:08:56;101365.38;;;23.88;43.58
56632;BME280;42503;39.928;-75.152;2022-10-16T08:10:57;101363.13;;;23.90;43.53
56632;BME280;42503;39.928;-75.152;2022-10-16T08:13:01;101365.94;;;23.84;43.72
56632;BME280;42503;39.928;-75.152;2022-10-16T08:15:02;101366.47;;;23.87;43.50
56632;BME280;42503;39.928;-75.152;2022-10-16T08:17:04;101374.28;;;23.90;43.70
56632;BME280;42503;39.928;-75.152;2022-10-16T08:19:08;101356.78;;;23.79;43.57
56632;BME280;42503;39.928;-75.152;2022-10-16T08:21:15;101371.81;;;23.88;43.38
56632;BME280;42503;39.928;-75.152;2022-10-16T08:23:16;101378.22;;;23.89;43.36
56632;BME280;42503;39.928;-75.152;2022-10-16T08:25:17;101379.06;;;23.89;43.35
56632;BME280;42503;39.928;-75.152;2022-10-16T08:27:22;101377.66;;;23.87;43.50
56632;BME280;42503;39.928;-75.152;2022-10-16T08:29:26;101373.75;;;23.88;43.46
56632;BME280;42503;39.928;-75.152;2022-10-16T08:31:33;101370.97;;;23.88;43.57
56632;BME280;42503;39.928;-75.152;2022-10-16T08:33:38;101384.38;;;23.86;43.52
56632;BME280;42503;39.928;-75.152;2022-10-16T08:35:39;101378.78;;;23.86;43.50
56632;BME280;42503;39.928;-75.152;2022-10-16T08:37:43;101378.78;;;23.86;43.45
56632;BME280;42503;39.928;-75.152;2022-10-16T08:39:45;101384.38;;;23.86;43.57
56632;BME280;42503;39.928;-75.152;2022-10-16T08:49:15;101354.84;;;23.74;43.36
56632;BME280;42503;39.928;-75.152;2022-10-16T08:51:49;101363.47;;;23.83;43.48
56632;BME280;42503;39.928;-75.152;2022-10-16T08:53:45;101365.91;;;23.90;43.27
56632;BME280;42503;39.928;-75.152;2022-10-16T08:55:52;101362.50;;;23.98;43.06
56632;BME280;42503;39.928;-75.152;2022-10-16T08:57:53;101373.41;;;23.94;43.28
56632;BME280;42503;39.928;-75.152;2022-10-16T08:59:59;101346.44;;;23.79;43.56
56632;BME280;42503;39.928;-75.152;2022-10-16T09:02:01;101370.97;;;23.88;43.43
56632;BME280;42503;39.928;-75.152;2022-10-16T09:10:56;101363.47;;;23.83;43.53
56632;BME280;42503;39.928;-75.152;2022-10-16T09:17:55;101376.03;;;23.80;43.34
56632;BME280;42503;39.928;-75.152;2022-10-16T09:22:31;101354.28;;;23.72;43.47
56632;BME280;42503;39.928;-75.152;2022-10-16T09:24:33;101381.06;;;23.83;43.32
56632;BME280;42503;39.928;-75.152;2022-10-16T09:26:35;101383.06;;;23.78;43.47
56632;BME280;42503;39.928;-75.152;2022-10-16T09:28:36;101387.78;;;23.82;43.47
56632;BME280;42503;39.928;-75.152;2022-10-16T09:30:37;101281.47;;;23.09;43.26
56632;BME280;42503;39.928;-75.152;2022-10-16T09:32:44;101380.53;;;23.76;43.22
56632;BME280;42503;39.928;-75.152;2022-10-16T09:34:54;101387.78;;;23.77;43.42
56632;BME280;42503;39.928;-75.152;2022-10-16T09:37:00;101386.69;;;23.78;43.38
56632;BME280;42503;39.928;-75.152;2022-10-16T09:39:07;101389.47;;;23.78;43.19
56632;BME280;42503;39.928;-75.152;2022-10-16T09:43:26;101399.81;;;23.78;43.44
56632;BME280;42503;39.928;-75.152;2022-10-16T09:45:32;101373.34;;;23.65;43.05
56632;BME280;42503;39.928;-75.152;2022-10-16T09:47:39;101395.06;;;23.78;43.33
56632;BME280;42503;39.928;-75.152;2022-10-16T09:50:00;101404.56;;;23.77;43.12
56632;BME280;42503;39.928;-75.152;2022-10-16T09:52:13;101392.88;;;23.70;43.03
56632;BME280;42503;39.928;-75.152;2022-10-16T09:54:20;101398.97;;;23.77;42.94
56632;BME280;42503;39.928;-75.152;2022-10-16T09:56:24;101407.91;;;23.79;42.92
56632;BME280;42503;39.928;-75.152;2022-10-16T09:58:29;101407.06;;;23.79;43.24
56632;BME280;42503;39.928;-75.152;2022-10-16T10:00:30;101412.09;;;23.77;43.21
56632;BME280;42503;39.928;-75.152;2022-10-16T10:02:37;101413.78;;;23.78;43.28
56632;BME280;42503;39.928;-75.152;2022-10-16T10:04:42;101414.91;;;23.77;42.97
56632;BME280;42503;39.928;-75.152;2022-10-16T10:06:46;101381.47;;;23.56;43.09
56632;BME280;42503;39.928;-75.152;2022-10-16T10:09:00;101418.00;;;23.75;43.19
56632;BME280;42503;39.928;-75.152;2022-10-16T10:11:03;101414.06;;;23.76;42.96
56632;BME280;42503;39.928;-75.152;2022-10-16T10:13:20;101415.50;;;23.74;43.27
56632;BME280;42503;39.928;-75.152;2022-10-16T10:15:25;101409.91;;;23.74;42.99
56632;BME280;42503;39.928;-75.152;2022-10-16T10:17:31;101404.34;;;23.69;42.82
56632;BME280;42503;39.928;-75.152;2022-10-16T10:21:55;101402.88;;;23.76;43.10
56632;BME280;42503;39.928;-75.152;2022-10-16T10:23:57;101364.19;;;23.49;42.72
56632;BME280;42503;39.928;-75.152;2022-10-16T10:30:47;101413.22;;;23.76;42.70
56632;BME280;42503;39.928;-75.152;2022-10-16T10:35:22;101418.00;;;23.75;42.96
56632;BME280;42503;39.928;-75.152;2022-10-16T10:37:55;101414.94;;;23.72;42.78
56632;BME280;42503;39.928;-75.152;2022-10-16T10:45:21;101416.31;;;23.74;43.00
56632;BME280;42503;39.928;-75.152;2022-10-16T10:47:45;101418.56;;;23.72;42.80
56632;BME280;42503;39.928;-75.152;2022-10-16T10:49:57;101418.28;;;23.74;42.93
56632;BME280;42503;39.928;-75.152;2022-10-16T10:54:57;101423.63;;;23.70;42.96
56632;BME280;42503;39.928;-75.152;2022-10-16T10:59:07;101424.16;;;23.72;42.73
56632;BME280;42503;39.928;-75.152;2022-10-16T11:01:13;101424.16;;;23.72;42.73
56632;BME280;42503;39.928;-75.152;2022-10-16T11:05:28;101421.66;;;23.71;42.72
56632;BME280;42503;39.928;-75.152;2022-10-16T11:07:39;101418.31;;;23.69;42.87
56632;BME280;42503;39.928;-75.152;2022-10-16T11:09:47;101413.56;;;23.69;42.92
56632;BME280;42503;39.928;-75.152;2022-10-16T11:12:16;101415.78;;;23.67;43.19
56632;BME280;42503;39.928;-75.152;2022-10-16T11:14:35;101416.34;;;23.69;43.08
56632;BME280;42503;39.928;-75.152;2022-10-16T11:21:30;101419.16;;;23.69;42.97
56632;BME280;42503;39.928;-75.152;2022-10-16T11:24:00;101418.88;;;23.66;42.76
56632;BME280;42503;39.928;-75.152;2022-10-16T11:26:08;101398.53;;;23.50;42.88
56632;BME280;42503;39.928;-75.152;2022-10-16T11:28:37;101422.22;;;23.63;43.06
56632;BME280;42503;39.928;-75.152;2022-10-16T11:37:41;101417.22;;;23.65;42.38
56632;BME280;42503;39.928;-75.152;2022-10-16T11:39:50;101424.19;;;23.62;42.64
56632;BME280;42503;39.928;-75.152;2022-10-16T11:42:08;101432.56;;;23.62;42.64